createdAt,value
2018-04-28T00:01:59.412Z,95247.62
2018-04-28T00:04:25.804Z,95246.71
2018-04-28T00:06:52.204Z,95247.81
2018-04-28T00:09:18.666Z,95247.20
2018-04-28T00:11:45.471Z,95249.27
2018-04-28T00:14:11.813Z,95243.39
2018-04-28T00:16:38.132Z,95248.34
2018-04-28T00:19:04.579Z,95247.13
2018-04-28T00:21:30.896Z,95266.35
2018-04-28T00:23:57.367Z,95255.12
2018-04-28T00:26:23.745Z,95258.77
2018-04-28T00:28:50.180Z,95257.56
2018-04-28T00:31:16.521Z,95260.03
2018-04-28T00:33:42.939Z,95260.55
2018-04-28T00:36:09.349Z,95255.74
2018-04-28T00:38:35.718Z,95258.49
2018-04-28T00:41:02.114Z,95250.91
2018-04-28T00:43:28.469Z,95265.11
2018-04-28T00:45:54.828Z,95265.20
2018-04-28T00:48:21.284Z,95263.33
2018-04-28T00:50:47.727Z,95263.33
2018-04-28T00:53:14.060Z,95269.84
2018-04-28T00:55:40.586Z,95272.52
2018-04-28T00:58:07.034Z,95280.63
2018-04-28T01:00:41.064Z,95275.71
2018-04-28T01:03:07.504Z,95280.11
2018-04-28T01:08:20.179Z,95283.23
2018-04-28T01:10:53.708Z,95295.71
2018-04-28T01:13:27.923Z,95293.32
2018-04-28T01:16:01.426Z,95299.41
2018-04-28T01:18:34.852Z,95296.53
2018-04-28T01:21:08.256Z,95288.63
2018-04-28T01:23:34.576Z,95287.52
2018-04-28T01:26:00.905Z,95294.56
2018-04-28T01:28:27.282Z,95290.98
2018-04-28T01:30:53.617Z,95289.45
2018-04-28T01:33:19.947Z,95295.02
2018-04-28T01:35:46.359Z,95295.27
2018-04-28T01:38:12.700Z,95293.15
2018-04-28T01:40:39.022Z,95291.86
2018-04-28T01:43:05.379Z,95292.22
2018-04-28T01:45:31.760Z,95286.72
2018-04-28T01:47:58.103Z,95286.82
2018-04-28T01:50:24.492Z,95294.91
2018-04-28T01:52:50.895Z,95295.67
2018-04-28T01:55:17.345Z,95285.77
2018-04-28T01:57:43.673Z,95276.69
2018-04-28T02:00:10.057Z,95293.91
2018-04-28T02:02:36.761Z,95295.25
2018-04-28T02:05:03.152Z,95282.09
2018-04-28T02:07:29.521Z,95295.84
2018-04-28T02:09:55.884Z,95294.56
2018-04-28T02:12:22.415Z,95285.88
2018-04-28T02:14:49.014Z,95284.72
2018-04-28T02:17:15.487Z,95292.03
2018-04-28T02:19:41.820Z,95292.47
2018-04-28T02:22:08.309Z,95288.47
2018-04-28T02:24:34.706Z,95290.00
2018-04-28T02:27:01.075Z,95284.14
2018-04-28T02:29:27.516Z,95273.59
2018-04-28T02:31:53.909Z,95290.34
2018-04-28T02:34:20.282Z,95287.77
2018-04-28T02:36:46.731Z,95295.29
2018-04-28T02:39:13.208Z,95280.92
2018-04-28T02:41:39.607Z,95292.24
2018-04-28T02:44:05.999Z,95295.34
2018-04-28T02:46:32.372Z,95298.23
2018-04-28T02:48:58.714Z,95295.11
2018-04-28T02:51:25.094Z,95299.17
2018-04-28T02:53:51.476Z,95306.83
2018-04-28T02:56:17.833Z,95307.33
2018-04-28T02:58:44.210Z,95311.43
2018-04-28T03:01:10.595Z,95310.09
2018-04-28T03:03:37.028Z,95308.27
2018-04-28T03:06:03.373Z,95322.22
2018-04-28T03:08:29.769Z,95325.39
2018-04-28T03:10:56.360Z,95324.80
2018-04-28T03:13:22.804Z,95316.98
2018-04-28T03:15:49.136Z,95330.77
2018-04-28T03:18:15.613Z,95334.77
2018-04-28T03:20:42.113Z,95325.28
2018-04-28T03:23:08.504Z,95333.47
2018-04-28T03:25:34.836Z,95335.83
2018-04-28T03:28:01.266Z,95339.42
2018-04-28T03:30:27.730Z,95334.41
2018-04-28T03:32:54.070Z,95342.38
2018-04-28T03:35:20.419Z,95352.00
2018-04-28T03:37:46.798Z,95341.83
2018-04-28T03:40:13.233Z,95348.92
2018-04-28T03:42:39.570Z,95349.33
2018-04-28T03:45:06.013Z,95355.48
2018-04-28T03:47:32.387Z,95343.41
2018-04-28T03:49:58.782Z,95345.75
2018-04-28T03:52:25.139Z,95354.64
2018-04-28T03:54:51.633Z,95350.96
2018-04-28T03:57:18.307Z,95356.53
2018-04-28T03:59:44.723Z,95362.75
2018-04-28T04:02:11.131Z,95361.42
2018-04-28T04:04:37.505Z,95362.23
2018-04-28T04:07:03.936Z,95367.27
2018-04-28T04:09:30.276Z,95366.63
2018-04-28T04:11:56.688Z,95374.66
2018-04-28T04:14:23.177Z,95372.89
2018-04-28T04:16:49.560Z,95375.89
2018-04-28T04:19:15.958Z,95376.59
2018-04-28T04:21:42.331Z,95380.81
2018-04-28T04:24:08.862Z,95382.57
2018-04-28T04:26:35.341Z,95378.23
2018-04-28T04:29:01.649Z,95371.55
2018-04-28T04:31:28.122Z,95381.95
2018-04-28T04:33:54.499Z,95380.94
2018-04-28T04:36:20.812Z,95391.43
2018-04-28T04:38:47.281Z,95390.28
2018-04-28T04:41:13.610Z,95398.16
2018-04-28T04:43:39.925Z,95396.96
2018-04-28T04:46:06.282Z,95403.95
2018-04-28T04:48:32.638Z,95399.30
2018-04-28T04:50:59.009Z,95406.28
2018-04-28T04:53:25.354Z,95403.95
2018-04-28T04:55:51.728Z,95400.82
2018-04-28T04:58:18.776Z,95409.88
2018-04-28T05:00:45.943Z,95401.80
2018-04-28T05:03:12.387Z,95408.02
2018-04-28T05:05:38.747Z,95409.97
2018-04-28T05:08:05.100Z,95412.47
2018-04-28T05:10:31.489Z,95415.12
2018-04-28T05:12:57.861Z,95414.36
2018-04-28T05:15:24.229Z,95416.75
2018-04-28T05:17:50.776Z,95416.61
2018-04-28T05:20:17.141Z,95417.39
2018-04-28T05:22:43.462Z,95419.70
2018-04-28T05:25:09.860Z,95425.86
2018-04-28T05:27:36.276Z,95422.70
2018-04-28T05:30:02.613Z,95414.06
2018-04-28T05:32:28.977Z,95420.12
2018-04-28T05:34:55.383Z,95424.27
2018-04-28T05:37:30.184Z,95427.19
2018-04-28T05:39:57.657Z,95433.13
2018-04-28T05:42:24.064Z,95432.53
2018-04-28T05:44:50.396Z,95439.41
2018-04-28T05:47:16.783Z,95427.83
2018-04-28T05:49:43.296Z,95433.80
2018-04-28T05:52:09.649Z,95437.52
2018-04-28T05:54:36.055Z,95436.08
2018-04-28T05:57:02.431Z,95435.30
2018-04-28T05:59:28.836Z,95433.30
2018-04-28T06:01:55.225Z,95441.91
2018-04-28T06:04:21.683Z,95445.13
2018-04-28T06:06:48.074Z,95439.53
2018-04-28T06:09:14.450Z,95438.77
2018-04-28T06:11:40.828Z,95439.28
2018-04-28T06:14:07.213Z,95448.93
2018-04-28T06:16:33.545Z,95447.73
2018-04-28T06:18:59.951Z,95446.39
2018-04-28T06:21:26.416Z,95444.80
2018-04-28T06:23:52.849Z,95448.67
2018-04-28T06:26:19.228Z,95439.09
2018-04-28T06:28:45.548Z,95445.67
2018-04-28T06:31:11.913Z,95444.95
2018-04-28T06:33:38.296Z,95443.33
2018-04-28T06:36:04.681Z,95443.97
2018-04-28T06:38:31.049Z,95454.48
2018-04-28T06:40:57.468Z,95450.59
2018-04-28T06:43:23.871Z,95450.33
2018-04-28T06:45:50.210Z,95454.48
2018-04-28T06:48:16.600Z,95452.72
2018-04-28T06:50:42.968Z,95462.33
2018-04-28T06:53:09.342Z,95455.86
2018-04-28T06:55:35.660Z,95471.14
2018-04-28T06:58:02.013Z,95462.08
2018-04-28T07:00:28.381Z,95465.30
2018-04-28T07:02:54.724Z,95467.83
2018-04-28T07:05:21.081Z,95468.77
2018-04-28T07:07:47.406Z,95463.16
2018-04-28T07:10:13.790Z,95472.90
2018-04-28T07:12:40.165Z,95476.73
2018-04-28T07:15:06.496Z,95483.84
2018-04-28T07:17:32.821Z,95477.05
2018-04-28T07:19:59.191Z,95482.64
2018-04-28T07:22:25.503Z,95482.03
2018-04-28T07:24:51.966Z,95485.39
2018-04-28T07:27:18.296Z,95481.20
2018-04-28T07:29:44.690Z,95487.37
2018-04-28T07:32:11.027Z,95484.28
2018-04-28T07:34:37.397Z,95493.20
2018-04-28T07:37:03.772Z,95495.19
2018-04-28T07:39:30.107Z,95492.54
2018-04-28T07:41:56.478Z,95493.41
2018-04-28T07:44:22.925Z,95488.14
2018-04-28T07:46:49.314Z,95485.34
2018-04-28T07:49:15.644Z,95481.76
2018-04-28T07:51:41.975Z,95489.27
2018-04-28T07:54:08.389Z,95495.08
2018-04-28T07:56:34.689Z,95493.94
2018-04-28T07:59:01.025Z,95495.15
2018-04-28T08:01:27.344Z,95496.79
2018-04-28T08:03:53.659Z,95496.37
2018-04-28T08:06:20.024Z,95495.55
2018-04-28T08:08:46.357Z,95491.30
2018-04-28T08:11:12.809Z,95494.88
2018-04-28T08:13:39.160Z,95494.11
2018-04-28T08:16:05.541Z,95499.03
2018-04-28T08:18:31.964Z,95494.27
2018-04-28T08:20:58.341Z,95497.02
2018-04-28T08:23:24.668Z,95493.63
2018-04-28T08:25:51.042Z,95494.09
2018-04-28T08:28:17.414Z,95490.27
2018-04-28T08:30:43.802Z,95477.20
2018-04-28T08:35:44.571Z,95489.08
2018-04-28T08:38:10.897Z,95493.84
2018-04-28T08:40:37.387Z,95494.67
2018-04-28T08:43:03.720Z,95494.16
2018-04-28T08:45:30.106Z,95504.14
2018-04-28T08:47:56.456Z,95500.27
2018-04-28T08:50:22.904Z,95490.54
2018-04-28T08:52:49.227Z,95497.73
2018-04-28T08:55:15.539Z,95491.78
2018-04-28T08:57:41.868Z,95488.98
2018-04-28T09:00:08.432Z,95489.08
2018-04-28T09:02:34.808Z,95486.33
2018-04-28T09:05:01.150Z,95480.75
2018-04-28T09:07:27.518Z,95483.48
2018-04-28T09:09:53.915Z,95476.85
2018-04-28T09:12:20.287Z,95476.80
2018-04-28T09:14:46.614Z,95478.97
2018-04-28T09:17:13.010Z,95484.89
2018-04-28T09:19:39.355Z,95480.33
2018-04-28T09:22:05.713Z,95480.73
2018-04-28T09:24:32.093Z,95471.94
2018-04-28T09:26:58.407Z,95467.73
2018-04-28T09:29:24.784Z,95466.09
2018-04-28T09:31:51.124Z,95469.19
2018-04-28T09:34:17.474Z,95468.06
2018-04-28T09:36:43.902Z,95466.41
2018-04-28T09:39:10.274Z,95468.05
2018-04-28T09:41:36.702Z,95457.95
2018-04-28T09:44:03.087Z,95456.41
2018-04-28T09:46:29.508Z,95456.66
2018-04-28T09:48:55.827Z,95458.58
2018-04-28T09:51:22.154Z,95443.45
2018-04-28T09:53:48.518Z,95449.98
2018-04-28T09:58:47.255Z,95445.72
2018-04-28T10:01:13.626Z,95436.16
2018-04-28T10:03:40.009Z,95430.23
2018-04-28T10:06:06.345Z,95422.88
2018-04-28T10:08:32.742Z,95425.98
2018-04-28T10:10:59.121Z,95414.66
2018-04-28T10:13:25.490Z,95421.95
2018-04-28T10:15:51.826Z,95418.78
2018-04-28T10:18:18.210Z,95417.55
2018-04-28T10:20:44.525Z,95409.51
2018-04-28T10:23:10.906Z,95400.91
2018-04-28T10:25:37.341Z,95411.11
2018-04-28T10:28:03.660Z,95405.52
2018-04-28T10:30:30.032Z,95403.48
2018-04-28T10:32:56.420Z,95400.75
2018-04-28T10:35:22.779Z,95397.69
2018-04-28T10:37:49.145Z,95391.63
2018-04-28T10:40:15.464Z,95382.41
2018-04-28T10:42:41.865Z,95379.02
2018-04-28T10:45:08.187Z,95380.52
2018-04-28T10:47:34.567Z,95376.23
2018-04-28T10:50:00.970Z,95378.88
2018-04-28T10:52:27.447Z,95369.95
2018-04-28T10:54:53.876Z,95360.83
2018-04-28T10:57:20.198Z,95362.13
2018-04-28T10:59:46.631Z,95363.27
2018-04-28T11:02:12.983Z,95372.55
2018-04-28T11:04:39.372Z,95356.80
2018-04-28T11:07:05.783Z,95361.24
2018-04-28T11:09:32.197Z,95358.33
2018-04-28T11:11:58.553Z,95354.79
2018-04-28T11:14:24.920Z,95350.41
2018-04-28T11:16:51.250Z,95353.82
2018-04-28T11:19:17.655Z,95340.98
2018-04-28T11:21:44.004Z,95347.58
2018-04-28T11:24:10.331Z,95344.20
2018-04-28T11:26:36.794Z,95338.55
2018-04-28T11:29:03.175Z,95345.34
2018-04-28T11:31:29.553Z,95328.22
2018-04-28T11:33:55.876Z,95334.18
2018-04-28T11:36:22.297Z,95329.86
2018-04-28T11:38:48.680Z,95326.95
2018-04-28T11:41:15.010Z,95316.62
2018-04-28T11:43:41.448Z,95319.59
2018-04-28T11:46:07.831Z,95310.27
2018-04-28T11:48:34.209Z,95302.28
2018-04-28T11:51:00.571Z,95292.72
2018-04-28T11:53:26.936Z,95302.08
2018-04-28T11:55:53.388Z,95286.09
2018-04-28T11:58:19.776Z,95278.86
2018-04-28T12:00:46.108Z,95282.91
2018-04-28T12:03:12.474Z,95278.23
2018-04-28T12:05:38.869Z,95273.73
2018-04-28T12:08:05.219Z,95267.91
2018-04-28T12:10:31.569Z,95267.73
2018-04-28T12:12:57.985Z,95253.81
2018-04-28T12:15:24.591Z,95248.16
2018-04-28T12:17:51.030Z,95250.14
2018-04-28T12:20:17.396Z,95244.81
2018-04-28T12:22:43.748Z,95244.54
2018-04-28T12:25:10.115Z,95247.27
2018-04-28T12:27:36.461Z,95249.69
2018-04-28T12:30:02.860Z,95247.00
2018-04-28T12:32:29.192Z,95240.00
2018-04-28T12:34:55.559Z,95237.56
2018-04-28T12:37:21.908Z,95228.35
2018-04-28T12:39:48.317Z,95239.78
2018-04-28T12:42:14.663Z,95241.91
2018-04-28T12:44:40.978Z,95233.25
2018-04-28T12:47:07.347Z,95223.52
2018-04-28T12:49:33.743Z,95220.51
2018-04-28T12:52:00.070Z,95204.20
2018-04-28T12:54:26.486Z,95200.13
2018-04-28T12:56:52.976Z,95199.44
2018-04-28T12:59:19.288Z,95202.52
2018-04-28T13:01:45.652Z,95204.28
2018-04-28T13:04:12.024Z,95195.75
2018-04-28T13:06:38.382Z,95196.52
2018-04-28T13:09:04.769Z,95195.30
2018-04-28T13:11:31.141Z,95194.41
2018-04-28T13:13:57.456Z,95182.25
2018-04-28T13:16:23.814Z,95184.30
2018-04-28T13:18:50.147Z,95192.23
2018-04-28T13:21:16.532Z,95192.30
2018-04-28T13:23:42.878Z,95188.88
2018-04-28T13:26:09.239Z,95184.31
2018-04-28T13:28:35.608Z,95189.00
2018-04-28T13:31:01.939Z,95182.19
2018-04-28T13:33:28.265Z,95176.87
2018-04-28T13:35:54.624Z,95180.02
2018-04-28T13:38:21.000Z,95168.09
2018-04-28T13:40:47.351Z,95172.23
2018-04-28T13:43:13.684Z,95166.19
2018-04-28T13:45:40.103Z,95164.80
2018-04-28T13:48:06.477Z,95163.52
2018-04-28T13:50:32.807Z,95163.16
2018-04-28T13:52:59.131Z,95160.32
2018-04-28T13:55:25.493Z,95149.39
2018-04-28T13:57:51.853Z,95141.98
2018-04-28T14:00:18.185Z,95142.25
2018-04-28T14:02:44.504Z,95146.39
2018-04-28T14:05:10.854Z,95144.30
2018-04-28T14:07:37.285Z,95143.27
2018-04-28T14:10:03.631Z,95147.69
2018-04-28T14:12:29.996Z,95146.27
2018-04-28T14:14:56.353Z,95149.13
2018-04-28T14:17:22.813Z,95154.65
2018-04-28T14:19:49.247Z,95147.91
2018-04-28T14:22:15.572Z,95143.78
2018-04-28T14:24:41.943Z,95136.16
2018-04-28T14:27:08.260Z,95131.84
2018-04-28T14:29:34.629Z,95130.72
2018-04-28T14:32:01.031Z,95127.46
2018-04-28T14:34:27.483Z,95143.37
2018-04-28T14:36:53.803Z,95133.73
2018-04-28T14:39:20.181Z,95139.00
2018-04-28T14:41:46.560Z,95142.39
2018-04-28T14:44:12.914Z,95141.44
2018-04-28T14:46:39.228Z,95135.71
2018-04-28T14:49:05.564Z,95142.92
2018-04-28T14:51:31.900Z,95145.46
2018-04-28T14:53:58.255Z,95143.60
2018-04-28T14:56:24.593Z,95145.52
2018-04-28T14:58:51.010Z,95136.51
2018-04-28T15:01:17.395Z,95143.34
2018-04-28T15:03:43.762Z,95154.37
2018-04-28T15:06:10.093Z,95155.48
2018-04-28T15:08:36.547Z,95152.35
2018-04-28T15:11:02.882Z,95150.43
2018-04-28T15:13:29.280Z,95151.91
2018-04-28T15:15:55.627Z,95156.57
2018-04-28T15:18:21.947Z,95166.25
2018-04-28T15:20:48.383Z,95165.56
2018-04-28T15:23:14.753Z,95171.36
2018-04-28T15:25:41.078Z,95171.90
2018-04-28T15:28:07.522Z,95170.78
2018-04-28T15:30:33.868Z,95170.66
2018-04-28T15:33:00.279Z,95167.97
2018-04-28T15:35:26.668Z,95158.42
2018-04-28T15:37:53.005Z,95162.22
2018-04-28T15:40:19.326Z,95170.00
2018-04-28T15:42:45.666Z,95169.06
2018-04-28T15:45:11.987Z,95173.61
2018-04-28T15:47:38.332Z,95180.72
2018-04-28T15:50:04.652Z,95178.39
2018-04-28T15:52:30.982Z,95174.00
2018-04-28T15:54:57.311Z,95169.57
2018-04-28T15:57:23.641Z,95173.48
2018-04-28T15:59:49.997Z,95162.29
2018-04-28T16:02:16.383Z,95173.14
2018-04-28T16:04:42.748Z,95173.22
2018-04-28T16:07:09.168Z,95170.61
2018-04-28T16:09:35.583Z,95170.53
2018-04-28T16:12:01.955Z,95174.77
2018-04-28T16:14:28.289Z,95181.11
2018-04-28T16:16:54.677Z,95185.94
2018-04-28T16:19:21.137Z,95180.97
2018-04-28T16:21:47.859Z,95176.89
2018-04-28T16:24:14.185Z,95182.80
2018-04-28T16:26:40.554Z,95182.06
2018-04-28T16:29:06.872Z,95183.91
2018-04-28T16:31:33.180Z,95196.17
2018-04-28T16:33:59.594Z,95190.15
2018-04-28T16:36:25.942Z,95203.24
2018-04-28T16:38:52.277Z,95202.09
2018-04-28T16:41:19.323Z,95199.84
2018-04-28T16:43:45.657Z,95194.45
2018-04-28T16:46:12.012Z,95184.63
2018-04-28T16:48:38.348Z,95192.77
2018-04-28T16:51:04.747Z,95191.88
2018-04-28T16:53:31.082Z,95190.59
2018-04-28T16:55:57.457Z,95197.75
2018-04-28T16:58:23.818Z,95191.86
2018-04-28T17:00:50.280Z,95192.70
2018-04-28T17:03:16.701Z,95206.89
2018-04-28T17:05:43.069Z,95201.16
2018-04-28T17:08:09.388Z,95194.91
2018-04-28T17:10:35.736Z,95201.78
2018-04-28T17:13:02.165Z,95212.24
2018-04-28T17:15:28.536Z,95213.16
2018-04-28T17:17:54.929Z,95206.77
2018-04-28T17:20:21.466Z,95220.20
2018-04-28T17:22:47.924Z,95224.69
2018-04-28T17:25:14.308Z,95219.72
2018-04-28T17:27:40.652Z,95218.45
2018-04-28T17:30:07.022Z,95234.02
2018-04-28T17:32:33.449Z,95239.65
2018-04-28T17:34:59.818Z,95237.73
2018-04-28T17:37:26.161Z,95224.12
2018-04-28T17:39:52.611Z,95241.97
2018-04-28T17:42:19.013Z,95247.68
2018-04-28T17:44:45.392Z,95238.05
2018-04-28T17:47:11.715Z,95247.14
2018-04-28T17:49:38.073Z,95234.80
2018-04-28T17:52:04.401Z,95241.30
2018-04-28T17:54:30.777Z,95248.53
2018-04-28T17:56:57.099Z,95260.68
2018-04-28T17:59:23.666Z,95260.63
2018-04-28T18:01:50.030Z,95258.39
2018-04-28T18:04:16.450Z,95263.06
2018-04-28T18:06:42.820Z,95260.09
2018-04-28T18:09:09.297Z,95244.47
2018-04-28T18:11:35.691Z,95259.20
2018-04-28T18:14:02.057Z,95249.77
2018-04-28T18:16:28.444Z,95260.05
2018-04-28T18:18:54.806Z,95252.50
2018-04-28T18:21:21.204Z,95258.50
2018-04-28T18:23:47.530Z,95263.47
2018-04-28T18:26:13.942Z,95266.83
2018-04-28T18:28:40.284Z,95266.08
2018-04-28T18:31:06.806Z,95273.93
2018-04-28T18:33:33.141Z,95268.51
2018-04-28T18:35:59.516Z,95271.25
2018-04-28T18:38:25.842Z,95283.05
2018-04-28T18:40:52.352Z,95284.13
2018-04-28T18:43:18.628Z,95290.66
2018-04-28T18:45:44.959Z,95283.71
2018-04-28T18:48:11.411Z,95281.39
2018-04-28T18:50:38.746Z,95293.82
2018-04-28T18:53:05.061Z,95292.36
2018-04-28T18:55:31.391Z,95283.73
2018-04-28T18:57:57.710Z,95287.39
2018-04-28T19:00:25.054Z,95296.50
2018-04-28T19:02:51.428Z,95293.30
2018-04-28T19:05:17.927Z,95306.34
2018-04-28T19:07:44.277Z,95309.14
2018-04-28T19:10:10.605Z,95304.16
2018-04-28T19:12:37.222Z,95306.03
2018-04-28T19:15:03.551Z,95311.31
2018-04-28T19:17:30.053Z,95312.49
2018-04-28T19:19:56.429Z,95315.55
2018-04-28T19:22:22.870Z,95315.39
2018-04-28T19:24:49.190Z,95315.75
2018-04-28T19:27:15.519Z,95319.27
2018-04-28T19:29:41.917Z,95322.53
2018-04-28T19:32:08.237Z,95324.09
2018-04-28T19:34:34.635Z,95326.20
2018-04-28T19:37:00.964Z,95328.23
2018-04-28T19:39:27.308Z,95323.88
2018-04-28T19:41:53.668Z,95330.19
2018-04-28T19:44:20.036Z,95323.56
2018-04-28T19:46:46.378Z,95323.09
2018-04-28T19:49:12.704Z,95329.56
2018-04-28T19:51:39.041Z,95336.58
2018-04-28T19:54:05.355Z,95333.08
2018-04-28T19:56:31.685Z,95335.45
2018-04-28T19:58:58.028Z,95340.58
2018-04-28T20:01:24.423Z,95340.41
2018-04-28T20:03:50.803Z,95341.49
2018-04-28T20:06:17.182Z,95336.13
2018-04-28T20:08:43.504Z,95338.35
2018-04-28T20:11:09.848Z,95326.39
2018-04-28T20:13:36.175Z,95334.92
2018-04-28T20:16:02.509Z,95331.27
2018-04-28T20:18:28.882Z,95330.27
2018-04-28T20:20:55.229Z,95322.25
2018-04-28T20:23:21.546Z,95325.83
2018-04-28T20:25:47.885Z,95324.64
2018-04-28T20:28:14.216Z,95326.50
2018-04-28T20:30:40.597Z,95326.59
2018-04-28T20:33:07.057Z,95324.02
2018-04-28T20:35:33.389Z,95326.40
2018-04-28T20:37:59.850Z,95331.05
2018-04-28T20:40:26.215Z,95333.01
2018-04-28T20:42:52.672Z,95330.84
2018-04-28T20:45:18.998Z,95335.48
2018-04-28T20:47:45.304Z,95330.51
2018-04-28T20:50:11.691Z,95331.72
2018-04-28T20:52:38.008Z,95330.20
2018-04-28T20:55:04.345Z,95331.97
2018-04-28T20:57:30.733Z,95322.68
2018-04-28T20:59:57.172Z,95331.34
2018-04-28T21:02:23.482Z,95313.11
2018-04-28T21:04:49.868Z,95305.33
2018-04-28T21:07:16.287Z,95317.89
2018-04-28T21:09:42.699Z,95317.81
2018-04-28T21:12:09.220Z,95328.48
2018-04-28T21:14:35.627Z,95329.30
2018-04-28T21:17:02.130Z,95327.19
2018-04-28T21:19:28.533Z,95330.95
2018-04-28T21:21:54.864Z,95331.56
2018-04-28T21:24:21.237Z,95332.91
2018-04-28T21:26:47.625Z,95323.23
2018-04-28T21:29:13.943Z,95331.29
2018-04-28T21:31:40.256Z,95329.94
2018-04-28T21:34:06.580Z,95337.03
2018-04-28T21:36:32.905Z,95330.82
2018-04-28T21:38:59.295Z,95336.87
2018-04-28T21:41:25.644Z,95338.58
2018-04-28T21:43:51.975Z,95333.88
2018-04-28T21:46:18.347Z,95329.14
2018-04-28T21:48:44.673Z,95337.45
2018-04-28T21:51:11.008Z,95332.30
2018-04-28T21:53:37.363Z,95338.05
2018-04-28T21:56:03.820Z,95334.13
2018-04-28T21:58:30.167Z,95328.73
2018-04-28T22:00:56.571Z,95331.75
2018-04-28T22:03:23.029Z,95337.14
2018-04-28T22:05:49.379Z,95345.89
2018-04-28T22:08:15.747Z,95345.67
2018-04-28T22:10:42.125Z,95338.44
2018-04-28T22:13:08.460Z,95339.31
2018-04-28T22:15:34.843Z,95345.91
2018-04-28T22:18:01.184Z,95343.24
2018-04-28T22:20:27.584Z,95343.84
2018-04-28T22:22:53.970Z,95344.53
2018-04-28T22:25:20.337Z,95337.36
2018-04-28T22:27:46.672Z,95348.22
2018-04-28T22:30:13.021Z,95357.70
2018-04-28T22:32:39.344Z,95358.25
2018-04-28T22:35:05.681Z,95354.02
2018-04-28T22:37:32.013Z,95351.27
2018-04-28T22:39:58.380Z,95349.11
2018-04-28T22:42:24.711Z,95340.65
2018-04-28T22:44:51.190Z,95351.45
2018-04-28T22:47:17.521Z,95354.31
2018-04-28T22:49:43.858Z,95342.55
2018-04-28T22:52:10.243Z,95340.53
2018-04-28T22:54:36.709Z,95342.48
2018-04-28T22:57:03.051Z,95344.52
2018-04-28T22:59:29.375Z,95344.66
2018-04-28T23:01:55.737Z,95337.37
2018-04-28T23:04:22.154Z,95343.95
2018-04-28T23:06:48.568Z,95333.09
2018-04-28T23:09:14.947Z,95339.47
2018-04-28T23:11:41.297Z,95329.52
2018-04-28T23:14:07.666Z,95324.67
2018-04-28T23:16:33.990Z,95328.08
2018-04-28T23:19:00.321Z,95321.87
2018-04-28T23:21:26.755Z,95317.07
2018-04-28T23:23:53.105Z,95324.36
2018-04-28T23:26:19.447Z,95313.95
2018-04-28T23:28:45.784Z,95309.11
2018-04-28T23:31:12.106Z,95316.45
2018-04-28T23:33:38.513Z,95300.73
2018-04-28T23:36:04.865Z,95313.95
2018-04-28T23:38:31.231Z,95312.91
2018-04-28T23:40:57.558Z,95302.02
2018-04-28T23:43:26.036Z,95309.91
2018-04-28T23:45:52.433Z,95317.52
2018-04-28T23:48:18.810Z,95316.59
2018-04-28T23:50:45.155Z,95316.78
2018-04-28T23:53:11.508Z,95318.53
2018-04-28T23:55:37.828Z,95305.23
2018-04-28T23:58:04.181Z,95299.29
